createdAt,value
2018-04-19T00:00:02.492Z,1021.26
2018-04-19T00:01:02.480Z,1021.27
2018-04-19T00:02:02.465Z,1021.24
2018-04-19T00:03:02.451Z,1021.26
2018-04-19T00:04:02.441Z,1021.23
2018-04-19T00:05:02.429Z,1021.22
2018-04-19T00:06:02.417Z,1021.19
2018-04-19T00:07:02.404Z,1021.23
2018-04-19T00:08:02.392Z,1021.2
2018-04-19T00:09:02.377Z,1021.23
2018-04-19T00:10:02.365Z,1021.21
2018-04-19T00:11:02.357Z,1021.19
2018-04-19T00:12:02.342Z,1021.2
2018-04-19T00:13:02.330Z,1021.19
2018-04-19T00:14:02.315Z,1021.19
2018-04-19T00:15:02.302Z,1021.18
2018-04-19T00:16:02.291Z,1021.16
2018-04-19T00:17:02.277Z,1021.19
2018-04-19T00:18:02.265Z,1021.16
2018-04-19T00:19:02.258Z,1021.18
2018-04-19T00:20:02.240Z,1021.18
2018-04-19T00:21:02.230Z,1021.15
2018-04-19T00:22:02.213Z,1021.13
2018-04-19T00:23:02.201Z,1021.13
2018-04-19T00:24:02.192Z,1021.13
2018-04-19T00:25:02.177Z,1021.11
2018-04-19T00:26:02.164Z,1021.06
2018-04-19T00:27:02.151Z,1021.06
2018-04-19T00:28:02.142Z,1021.08
2018-04-19T00:29:02.130Z,1021.04
2018-04-19T00:30:02.115Z,1021.07
2018-04-19T00:31:02.100Z,1021.07
2018-04-19T00:32:02.090Z,1021.06
2018-04-19T00:33:02.079Z,1021.07
2018-04-19T00:34:02.062Z,1021.06
2018-04-19T00:35:02.060Z,1021.05
2018-04-19T00:36:02.038Z,1021.04
2018-04-19T00:37:02.026Z,1021.05
2018-04-19T00:38:02.012Z,1021.01
2018-04-19T00:39:02.007Z,1021.01
2018-04-19T00:40:01.989Z,1021.03
2018-04-19T00:41:01.975Z,1021.03
2018-04-19T00:42:01.962Z,1021.03
2018-04-19T00:43:01.951Z,1021.02
2018-04-19T00:44:01.942Z,1021.01
2018-04-19T00:45:01.921Z,1020.98
2018-04-19T00:46:01.911Z,1021.01
2018-04-19T00:47:01.904Z,1021.03
2018-04-19T00:48:01.883Z,1021.08
2018-04-19T00:49:01.872Z,1021.09
2018-04-19T00:50:01.872Z,1021.09
2018-04-19T00:51:01.848Z,1021.09
2018-04-19T00:52:01.836Z,1021.07
2018-04-19T00:53:01.824Z,1021.05
2018-04-19T00:54:01.809Z,1021.06
2018-04-19T00:55:01.796Z,1021.1
2018-04-19T00:56:01.783Z,1021.07
2018-04-19T00:57:01.770Z,1021.05
2018-04-19T00:58:01.756Z,1021.03
2018-04-19T00:59:01.746Z,1021.03
2018-04-19T01:00:01.738Z,1021.04
2018-04-19T01:01:01.719Z,1021.01
2018-04-19T01:02:01.704Z,1021
2018-04-19T01:03:01.693Z,1020.96
2018-04-19T01:04:01.681Z,1020.94
2018-04-19T01:05:01.665Z,1020.91
2018-04-19T01:06:01.652Z,1020.9
2018-04-19T01:07:01.651Z,1020.86
2018-04-19T01:08:01.629Z,1020.91
2018-04-19T01:09:01.614Z,1020.89
2018-04-19T01:10:01.604Z,1020.86
2018-04-19T01:11:01.591Z,1020.87
2018-04-19T01:12:01.575Z,1020.88
2018-04-19T01:13:01.563Z,1020.89
2018-04-19T01:14:01.551Z,1020.86
2018-04-19T01:15:01.538Z,1020.85
2018-04-19T01:16:01.531Z,1020.87
2018-04-19T01:17:01.512Z,1020.88
2018-04-19T01:18:01.501Z,1020.87
2018-04-19T01:19:01.499Z,1020.88
2018-04-19T01:20:01.480Z,1020.86
2018-04-19T01:21:01.460Z,1020.88
2018-04-19T01:22:01.449Z,1020.84
2018-04-19T01:23:01.436Z,1020.87
2018-04-19T01:24:01.422Z,1020.83
2018-04-19T01:25:01.411Z,1020.85
2018-04-19T01:26:01.398Z,1020.82
2018-04-19T01:27:01.381Z,1020.84
2018-04-19T01:28:01.370Z,1020.84
2018-04-19T01:29:01.358Z,1020.85
2018-04-19T01:30:01.349Z,1020.85
2018-04-19T01:31:01.330Z,1020.84
2018-04-19T01:32:01.319Z,1020.85
2018-04-19T01:33:01.304Z,1020.83
2018-04-19T01:34:01.290Z,1020.82
2018-04-19T01:35:01.276Z,1020.85
2018-04-19T01:36:01.266Z,1020.82
2018-04-19T01:37:01.251Z,1020.77
2018-04-19T01:38:01.239Z,1020.79
2018-04-19T01:39:01.225Z,1020.81
2018-04-19T01:40:01.214Z,1020.77
2018-04-19T01:41:01.208Z,1020.74
2018-04-19T01:42:01.184Z,1020.79
2018-04-19T01:43:01.173Z,1020.76
2018-04-19T01:44:01.159Z,1020.75
2018-04-19T01:45:01.144Z,1020.73
2018-04-19T01:46:01.135Z,1020.73
2018-04-19T01:47:01.120Z,1020.74
2018-04-19T01:48:01.106Z,1020.72
2018-04-19T01:49:01.093Z,1020.73
2018-04-19T01:50:01.084Z,1020.7
2018-04-19T01:51:01.069Z,1020.73
2018-04-19T01:52:01.056Z,1020.71
2018-04-19T01:53:01.040Z,1020.7
2018-04-19T01:54:01.027Z,1020.66
2018-04-19T01:55:01.023Z,1020.68
2018-04-19T01:56:01.002Z,1020.64
2018-04-19T01:57:00.987Z,1020.68
2018-04-19T01:58:00.983Z,1020.66
2018-04-19T01:59:00.961Z,1020.72
2018-04-19T02:00:00.947Z,1020.67
2018-04-19T02:01:00.935Z,1020.66
2018-04-19T02:02:00.922Z,1020.66
2018-04-19T02:03:00.910Z,1020.61
2018-04-19T02:04:00.893Z,1020.6
2018-04-19T02:05:00.883Z,1020.59
2018-04-19T02:06:00.871Z,1020.57
2018-04-19T02:07:00.856Z,1020.58
2018-04-19T02:08:00.843Z,1020.59
2018-04-19T02:09:00.830Z,1020.57
2018-04-19T02:10:00.822Z,1020.58
2018-04-19T02:11:00.803Z,1020.61
2018-04-19T02:12:00.790Z,1020.53
2018-04-19T02:13:00.778Z,1020.57
2018-04-19T02:14:00.763Z,1020.56
2018-04-19T02:15:00.750Z,1020.53
2018-04-19T02:16:00.737Z,1020.55
2018-04-19T02:17:00.726Z,1020.52
2018-04-19T02:18:00.711Z,1020.54
2018-04-19T02:19:00.697Z,1020.5
2018-04-19T02:20:00.684Z,1020.52
2018-04-19T02:21:00.671Z,1020.51
2018-04-19T02:22:00.656Z,1020.49
2018-04-19T02:23:00.694Z,1020.48
2018-04-19T02:24:00.630Z,1020.5
2018-04-19T02:25:00.618Z,1020.45
2018-04-19T02:26:00.606Z,1020.47
2018-04-19T02:27:00.592Z,1020.46
2018-04-19T02:28:00.578Z,1020.41
2018-04-19T02:29:00.564Z,1020.42
2018-04-19T02:30:00.556Z,1020.44
2018-04-19T02:31:00.555Z,1020.44
2018-04-19T02:32:00.529Z,1020.41
2018-04-19T02:33:00.520Z,1020.39
2018-04-19T02:34:00.510Z,1020.37
2018-04-19T02:35:00.485Z,1020.41
2018-04-19T02:36:00.471Z,1020.39
2018-04-19T02:37:00.660Z,1020.38
2018-04-19T02:38:00.450Z,1020.39
2018-04-19T02:39:00.432Z,1020.35
2018-04-19T02:40:00.420Z,1020.37
2018-04-19T02:41:00.406Z,1020.37
2018-04-19T02:42:00.393Z,1020.33
2018-04-19T02:43:00.683Z,1020.33
2018-04-19T02:44:00.376Z,1020.32
2018-04-19T02:45:00.357Z,1020.32
2018-04-19T02:46:00.338Z,1020.28
2018-04-19T02:47:00.323Z,1020.29
2018-04-19T02:48:00.314Z,1020.29
2018-04-19T02:49:00.299Z,1020.27
2018-04-19T02:50:00.291Z,1020.28
2018-04-19T02:51:00.269Z,1020.31
2018-04-19T02:52:00.262Z,1020.28
2018-04-19T02:53:00.243Z,1020.32
2018-04-19T02:54:00.230Z,1020.3
2018-04-19T02:55:00.217Z,1020.25
2018-04-19T02:56:00.203Z,1020.24
2018-04-19T02:57:00.190Z,1020.26
2018-04-19T02:58:00.176Z,1020.27
2018-04-19T02:59:00.161Z,1020.28
2018-04-19T03:00:00.150Z,1020.25
2018-04-19T03:01:00.137Z,1020.24
2018-04-19T03:02:00.122Z,1020.24
2018-04-19T03:03:00.111Z,1020.2
2018-04-19T03:04:00.100Z,1020.2
2018-04-19T03:05:00.083Z,1020.2
2018-04-19T03:06:00.072Z,1020.18
2018-04-19T03:07:00.072Z,1020.16
2018-04-19T03:08:00.043Z,1020.17
2018-04-19T03:09:00.030Z,1020.13
2018-04-19T03:10:00.017Z,1020.14
2018-04-19T03:11:00.015Z,1020.14
2018-04-19T03:11:59.992Z,1020.12
2018-04-19T03:12:59.976Z,1020.11
2018-04-19T03:13:59.964Z,1020.07
2018-04-19T03:14:59.945Z,1020.04
2018-04-19T03:15:59.935Z,1020.02
2018-04-19T03:16:59.924Z,1020.01
2018-04-19T03:17:59.905Z,1020.05
2018-04-19T03:18:59.894Z,1020.04
2018-04-19T03:19:59.879Z,1019.99
2018-04-19T03:20:59.869Z,1020
2018-04-19T03:21:59.851Z,1019.99
2018-04-19T03:22:59.839Z,1019.99
2018-04-19T03:23:59.827Z,1019.97
2018-04-19T03:24:59.812Z,1019.95
2018-04-19T03:25:59.798Z,1019.95
2018-04-19T03:26:59.784Z,1019.93
2018-04-19T03:27:59.769Z,1019.93
2018-04-19T03:28:59.805Z,1019.95
2018-04-19T03:29:59.744Z,1019.89
2018-04-19T03:30:59.733Z,1019.88
2018-04-19T03:31:59.717Z,1019.86
2018-04-19T03:32:59.701Z,1019.84
2018-04-19T03:33:59.688Z,1019.85
2018-04-19T03:34:59.675Z,1019.86
2018-04-19T03:35:59.661Z,1019.82
2018-04-19T03:36:59.648Z,1019.79
2018-04-19T03:37:59.642Z,1019.83
2018-04-19T03:38:59.618Z,1019.81
2018-04-19T03:39:59.606Z,1019.85
2018-04-19T03:40:59.590Z,1019.84
2018-04-19T03:41:59.577Z,1019.85
2018-04-19T03:42:59.561Z,1019.8
2018-04-19T03:43:59.551Z,1019.82
2018-04-19T03:44:59.536Z,1019.83
2018-04-19T03:45:59.529Z,1019.84
2018-04-19T03:46:59.509Z,1019.83
2018-04-19T03:47:59.495Z,1019.83
2018-04-19T03:48:59.480Z,1019.78
2018-04-19T03:49:59.470Z,1019.8
2018-04-19T03:50:59.453Z,1019.8
2018-04-19T03:51:59.439Z,1019.8
2018-04-19T03:52:59.425Z,1019.75
2018-04-19T03:53:59.418Z,1019.77
2018-04-19T03:54:59.401Z,1019.78
2018-04-19T03:55:59.384Z,1019.75
2018-04-19T03:56:59.370Z,1019.8
2018-04-19T03:57:59.356Z,1019.78
2018-04-19T03:58:59.341Z,1019.81
2018-04-19T03:59:59.328Z,1019.79
2018-04-19T04:00:59.322Z,1019.82
2018-04-19T04:01:59.305Z,1019.83
2018-04-19T04:02:59.292Z,1019.85
2018-04-19T04:03:59.273Z,1019.83
2018-04-19T04:04:59.261Z,1019.82
2018-04-19T04:05:59.246Z,1019.81
2018-04-19T04:06:59.239Z,1019.81
2018-04-19T04:07:59.217Z,1019.79
2018-04-19T04:08:59.206Z,1019.82
2018-04-19T04:09:59.194Z,1019.81
2018-04-19T04:10:59.176Z,1019.8
2018-04-19T04:11:59.178Z,1019.82
2018-04-19T04:12:59.151Z,1019.81
2018-04-19T04:13:59.135Z,1019.83
2018-04-19T04:14:59.122Z,1019.8
2018-04-19T04:15:59.108Z,1019.78
2018-04-19T04:16:59.092Z,1019.79
2018-04-19T04:17:59.080Z,1019.83
2018-04-19T04:18:59.066Z,1019.8
2018-04-19T04:19:59.050Z,1019.84
2018-04-19T04:20:59.037Z,1019.78
2018-04-19T04:21:59.023Z,1019.79
2018-04-19T04:22:59.013Z,1019.82
2018-04-19T04:23:58.997Z,1019.82
2018-04-19T04:24:58.981Z,1019.85
2018-04-19T04:25:58.967Z,1019.88
2018-04-19T04:26:58.953Z,1019.82
2018-04-19T04:27:58.940Z,1019.87
2018-04-19T04:28:58.925Z,1019.83
2018-04-19T04:29:58.916Z,1019.86
2018-04-19T04:30:58.899Z,1019.85
2018-04-19T04:31:58.883Z,1019.87
2018-04-19T04:32:58.871Z,1019.87
2018-04-19T04:33:58.856Z,1019.85
2018-04-19T04:34:58.842Z,1019.84
2018-04-19T04:35:58.827Z,1019.87
2018-04-19T04:36:59.014Z,1019.88
2018-04-19T04:37:58.800Z,1019.84
2018-04-19T04:38:58.785Z,1019.86
2018-04-19T04:39:58.769Z,1019.83
2018-04-19T04:40:58.760Z,1019.9
2018-04-19T04:41:58.741Z,1019.87
2018-04-19T04:42:58.733Z,1019.91
2018-04-19T04:43:58.714Z,1019.88
2018-04-19T04:44:58.708Z,1019.92
2018-04-19T04:45:58.688Z,1019.88
2018-04-19T04:46:58.669Z,1019.91
2018-04-19T04:47:58.659Z,1019.89
2018-04-19T04:48:58.645Z,1019.9
2018-04-19T04:49:58.631Z,1019.9
2018-04-19T04:50:58.613Z,1019.86
2018-04-19T04:51:58.602Z,1019.88
2018-04-19T04:52:58.587Z,1019.91
2018-04-19T04:53:58.617Z,1019.9
2018-04-19T04:54:58.557Z,1019.88
2018-04-19T04:55:58.543Z,1019.9
2018-04-19T04:56:58.533Z,1019.91
2018-04-19T04:57:58.515Z,1019.9
2018-04-19T04:58:58.499Z,1019.91
2018-04-19T04:59:58.487Z,1019.91
2018-04-19T05:00:58.473Z,1019.94
2018-04-19T05:01:58.459Z,1019.87
2018-04-19T05:02:58.444Z,1019.91
2018-04-19T05:03:58.433Z,1019.92
2018-04-19T05:04:58.416Z,1019.89
2018-04-19T05:05:58.400Z,1019.94
2018-04-19T05:06:58.387Z,1019.95
2018-04-19T05:07:58.372Z,1019.95
2018-04-19T05:08:58.360Z,1019.94
2018-04-19T05:09:58.344Z,1019.96
2018-04-19T05:10:58.343Z,1019.95
2018-04-19T05:11:58.322Z,1019.93
2018-04-19T05:12:58.307Z,1019.96
2018-04-19T05:13:58.290Z,1019.98
2018-04-19T05:14:58.275Z,1019.97
2018-04-19T05:15:58.260Z,1020
2018-04-19T05:16:58.245Z,1020.01
2018-04-19T05:17:58.231Z,1020.01
2018-04-19T05:18:58.217Z,1019.98
2018-04-19T05:19:58.204Z,1020.05
2018-04-19T05:20:58.188Z,1020.02
2018-04-19T05:21:58.179Z,1020.03
2018-04-19T05:22:58.163Z,1020
2018-04-19T05:23:58.146Z,1019.99
2018-04-19T05:24:58.131Z,1020.02
2018-04-19T05:25:58.118Z,1020.03
2018-04-19T05:26:58.104Z,1020.03
2018-04-19T05:27:58.089Z,1020.06
2018-04-19T05:28:58.075Z,1020.07
2018-04-19T05:29:58.064Z,1020.06
2018-04-19T05:30:58.048Z,1020.07
2018-04-19T05:31:58.034Z,1020.03
2018-04-19T05:32:58.021Z,1020.05
2018-04-19T05:33:58.005Z,1020.05
2018-04-19T05:34:57.990Z,1020.11
2018-04-19T05:35:57.977Z,1020.08
2018-04-19T05:36:57.963Z,1020.11
2018-04-19T05:37:57.952Z,1020.16
2018-04-19T05:38:57.935Z,1020.18
2018-04-19T05:39:57.920Z,1020.19
2018-04-19T05:40:57.910Z,1020.17
2018-04-19T05:41:57.892Z,1020.18
2018-04-19T05:42:57.879Z,1020.18
2018-04-19T05:43:57.865Z,1020.24
2018-04-19T05:44:57.852Z,1020.24
2018-04-19T05:45:57.837Z,1020.22
2018-04-19T05:46:57.822Z,1020.2
2018-04-19T05:47:57.809Z,1020.2
2018-04-19T05:48:57.797Z,1020.23
2018-04-19T05:49:57.790Z,1020.22
2018-04-19T05:50:57.767Z,1020.2
2018-04-19T05:51:57.753Z,1020.25
2018-04-19T05:52:57.740Z,1020.25
2018-04-19T05:53:57.727Z,1020.26
2018-04-19T05:54:57.720Z,1020.26
2018-04-19T05:55:57.699Z,1020.26
2018-04-19T05:56:57.690Z,1020.26
2018-04-19T05:57:57.672Z,1020.21
2018-04-19T05:58:57.656Z,1020.24
2018-04-19T05:59:57.650Z,1020.26
2018-04-19T06:00:57.630Z,1020.22
2018-04-19T06:01:57.615Z,1020.21
2018-04-19T06:02:57.605Z,1020.22
2018-04-19T06:03:57.590Z,1020.24
2018-04-19T06:04:57.572Z,1020.27
2018-04-19T06:05:57.561Z,1020.22
2018-04-19T06:06:57.548Z,1020.24
2018-04-19T06:07:57.534Z,1020.22
2018-04-19T06:08:57.519Z,1020.24
2018-04-19T06:09:57.508Z,1020.2
2018-04-19T06:10:57.492Z,1020.2
2018-04-19T06:11:57.480Z,1020.22
2018-04-19T06:12:57.466Z,1020.24
2018-04-19T06:13:57.455Z,1020.19
2018-04-19T06:14:57.441Z,1020.22
2018-04-19T06:15:57.426Z,1020.22
2018-04-19T06:16:57.416Z,1020.18
2018-04-19T06:17:57.403Z,1020.22
2018-04-19T06:18:57.386Z,1020.21
2018-04-19T06:19:57.378Z,1020.2
2018-04-19T06:20:57.359Z,1020.21
2018-04-19T06:21:57.347Z,1020.21
2018-04-19T06:22:57.332Z,1020.22
2018-04-19T06:23:57.321Z,1020.21
2018-04-19T06:24:57.339Z,1020.18
2018-04-19T06:25:57.295Z,1020.21
2018-04-19T06:26:57.281Z,1020.2
2018-04-19T06:27:57.273Z,1020.2
2018-04-19T06:28:57.255Z,1020.22
2018-04-19T06:29:57.245Z,1020.2
2018-04-19T06:30:57.228Z,1020.21
2018-04-19T06:31:57.215Z,1020.21
2018-04-19T06:32:57.203Z,1020.21
2018-04-19T06:33:57.191Z,1020.24
2018-04-19T06:34:57.182Z,1020.23
2018-04-19T06:35:57.273Z,1020.19
2018-04-19T06:36:57.355Z,1020.22
2018-04-19T06:37:57.137Z,1020.21
2018-04-19T06:38:57.126Z,1020.22
2018-04-19T06:39:57.118Z,1020.21
2018-04-19T06:40:57.101Z,1020.2
2018-04-19T06:41:57.091Z,1020.25
2018-04-19T06:42:57.076Z,1020.26
2018-04-19T06:43:57.063Z,1020.21
2018-04-19T06:44:57.050Z,1020.25
2018-04-19T06:45:57.038Z,1020.21
2018-04-19T06:46:57.029Z,1020.24
2018-04-19T06:47:57.012Z,1020.22
2018-04-19T06:48:56.998Z,1020.21
2018-04-19T06:49:56.988Z,1020.2
2018-04-19T06:50:56.975Z,1020.24
2018-04-19T06:51:56.962Z,1020.17
2018-04-19T06:52:56.951Z,1020.22
2018-04-19T06:53:56.938Z,1020.21
2018-04-19T06:54:56.927Z,1020.2
2018-04-19T06:55:56.916Z,1020.19
2018-04-19T06:56:56.902Z,1020.17
2018-04-19T06:57:56.893Z,1020.15
2018-04-19T06:58:56.877Z,1020.15
2018-04-19T06:59:56.866Z,1020.15
2018-04-19T07:00:56.856Z,1020.16
2018-04-19T07:01:56.841Z,1020.22
2018-04-19T07:02:56.827Z,1020.17
2018-04-19T07:03:56.819Z,1020.19
2018-04-19T07:04:56.807Z,1020.19
2018-04-19T07:05:56.795Z,1020.17
2018-04-19T07:06:56.788Z,1020.13
2018-04-19T07:07:56.771Z,1020.17
2018-04-19T07:08:56.759Z,1020.12
2018-04-19T07:09:56.748Z,1020.16
2018-04-19T07:10:56.739Z,1020.14
2018-04-19T07:11:56.726Z,1020.15
2018-04-19T07:12:56.715Z,1020.17
2018-04-19T07:13:56.701Z,1020.16
2018-04-19T07:14:56.691Z,1020.18
2018-04-19T07:15:56.680Z,1020.15
2018-04-19T07:16:56.674Z,1020.17
2018-04-19T07:17:56.657Z,1020.16
2018-04-19T07:18:56.648Z,1020.2
2018-04-19T07:19:56.636Z,1020.17
2018-04-19T07:20:56.627Z,1020.12
2018-04-19T07:21:56.612Z,1020.15
2018-04-19T07:22:56.602Z,1020.15
2018-04-19T07:23:56.590Z,1020.15
2018-04-19T07:24:56.578Z,1020.18
2018-04-19T07:25:56.567Z,1020.17
2018-04-19T07:26:56.559Z,1020.18
2018-04-19T07:27:56.546Z,1020.16
2018-04-19T07:28:56.537Z,1020.17
2018-04-19T07:29:56.526Z,1020.2
2018-04-19T07:30:56.523Z,1020.17
2018-04-19T07:31:56.503Z,1020.17
2018-04-19T07:32:56.496Z,1020.2
2018-04-19T07:33:56.483Z,1020.2
2018-04-19T07:34:56.475Z,1020.25
2018-04-19T07:35:56.462Z,1020.23
2018-04-19T07:36:56.452Z,1020.29
2018-04-19T07:37:56.441Z,1020.24
2018-04-19T07:38:56.433Z,1020.27
2018-04-19T07:39:56.421Z,1020.25
2018-04-19T07:40:56.413Z,1020.25
2018-04-19T07:41:56.401Z,1020.26
2018-04-19T07:42:56.397Z,1020.28
2018-04-19T07:43:56.381Z,1020.28
2018-04-19T07:44:56.370Z,1020.29
2018-04-19T07:45:56.365Z,1020.28
2018-04-19T07:46:56.351Z,1020.3
2018-04-19T07:47:56.346Z,1020.3
2018-04-19T07:48:56.343Z,1020.27
2018-04-19T07:49:56.322Z,1020.24
2018-04-19T07:50:56.314Z,1020.25
2018-04-19T07:51:56.302Z,1020.24
2018-04-19T07:52:56.296Z,1020.24
2018-04-19T07:53:56.288Z,1020.25
2018-04-19T07:54:56.280Z,1020.24
2018-04-19T07:55:56.269Z,1020.26
2018-04-19T07:56:56.256Z,1020.27
2018-04-19T07:57:56.267Z,1020.32
2018-04-19T07:58:56.238Z,1020.33
2018-04-19T07:59:56.228Z,1020.36
2018-04-19T08:00:56.219Z,1020.33
2018-04-19T08:01:56.209Z,1020.31
2018-04-19T08:02:56.200Z,1020.29
2018-04-19T08:03:56.192Z,1020.37
2018-04-19T08:04:56.181Z,1020.34
2018-04-19T08:05:56.175Z,1020.36
2018-04-19T08:06:56.167Z,1020.4
2018-04-19T08:07:56.156Z,1020.4
2018-04-19T08:08:56.147Z,1020.38
2018-04-19T08:09:56.148Z,1020.43
2018-04-19T08:10:56.129Z,1020.64
2018-04-19T08:11:56.123Z,1020.78
2018-04-19T08:12:56.113Z,1020.62
2018-04-19T08:13:56.105Z,1020.58
2018-04-19T08:14:56.097Z,1020.5
2018-04-19T08:15:56.089Z,1020.63
2018-04-19T08:16:56.084Z,1020.71
2018-04-19T08:17:56.074Z,1020.62
2018-04-19T08:18:56.095Z,1020.66
2018-04-19T08:19:56.061Z,1020.57
2018-04-19T08:20:56.054Z,1020.58
2018-04-19T08:21:56.049Z,1020.55
2018-04-19T08:22:56.044Z,1020.57
2018-04-19T08:23:56.037Z,1020.55
2018-04-19T08:24:56.035Z,1020.53
2018-04-19T08:25:56.027Z,1020.59
2018-04-19T08:26:56.023Z,1020.63
2018-04-19T08:27:56.020Z,1020.6
2018-04-19T08:28:56.014Z,1020.55
2018-04-19T08:29:56.009Z,1020.52
2018-04-19T08:30:56.004Z,1020.46
2018-04-19T08:31:55.999Z,1020.49
2018-04-19T08:32:55.999Z,1020.55
2018-04-19T08:33:55.993Z,1020.63
2018-04-19T08:34:55.991Z,1020.58
2018-04-19T08:35:55.984Z,1020.56
2018-04-19T08:36:56.187Z,1020.56
2018-04-19T08:37:55.978Z,1020.6
2018-04-19T08:38:55.977Z,1020.6
2018-04-19T08:39:55.969Z,1020.64
2018-04-19T08:40:55.964Z,1020.75
2018-04-19T08:41:55.962Z,1020.67
2018-04-19T08:42:55.959Z,1020.7
2018-04-19T08:43:55.955Z,1020.63
2018-04-19T08:44:55.953Z,1020.52
2018-04-19T08:45:55.954Z,1020.49
2018-04-19T08:46:55.954Z,1020.53
2018-04-19T08:47:55.949Z,1020.47
2018-04-19T08:48:55.949Z,1020.47
2018-04-19T08:49:55.944Z,1020.46
2018-04-19T08:50:55.941Z,1020.43
2018-04-19T08:51:55.944Z,1020.39
2018-04-19T08:52:55.937Z,1020.34
2018-04-19T08:53:55.937Z,1020.32
2018-04-19T08:54:55.935Z,1020.34
2018-04-19T08:55:55.930Z,1020.39
2018-04-19T08:56:55.933Z,1020.43
2018-04-19T08:57:55.933Z,1020.35
2018-04-19T08:58:55.924Z,1020.34
2018-04-19T08:59:55.923Z,1020.4
2018-04-19T09:00:55.919Z,1020.4
2018-04-19T09:01:55.919Z,1020.42
2018-04-19T09:02:55.915Z,1020.38
2018-04-19T09:03:55.913Z,1020.36
2018-04-19T09:04:55.912Z,1020.38
2018-04-19T09:05:55.908Z,1020.43
2018-04-19T09:06:55.904Z,1020.46
2018-04-19T09:07:55.907Z,1020.5
2018-04-19T09:08:55.902Z,1020.5
2018-04-19T09:09:55.898Z,1020.47
2018-04-19T09:10:55.895Z,1020.39
2018-04-19T09:11:55.898Z,1020.39
2018-04-19T09:12:55.892Z,1020.37
2018-04-19T09:13:55.890Z,1020.38
2018-04-19T09:14:55.887Z,1020.43
2018-04-19T09:15:55.887Z,1020.3
2018-04-19T09:16:55.885Z,1020.32
2018-04-19T09:17:55.883Z,1020.34
2018-04-19T09:18:55.881Z,1020.42
2018-04-19T09:19:55.882Z,1020.49
2018-04-19T09:20:55.878Z,1020.5
2018-04-19T09:21:55.882Z,1020.46
2018-04-19T09:22:55.876Z,1020.43
2018-04-19T09:23:55.873Z,1020.46
2018-04-19T09:24:55.870Z,1020.48
2018-04-19T09:25:55.869Z,1020.55
2018-04-19T09:26:55.869Z,1020.48
2018-04-19T09:27:55.868Z,1020.5
2018-04-19T09:28:55.865Z,1020.44
2018-04-19T09:29:55.877Z,1020.46
2018-04-19T09:30:55.865Z,1020.46
2018-04-19T09:31:55.864Z,1020.45
2018-04-19T09:32:55.866Z,1020.37
2018-04-19T09:33:55.862Z,1020.41
2018-04-19T09:34:55.860Z,1020.46
2018-04-19T09:35:55.859Z,1020.47
2018-04-19T09:36:55.859Z,1020.38
2018-04-19T09:37:55.859Z,1020.37
2018-04-19T09:38:55.856Z,1020.38
2018-04-19T09:39:55.854Z,1020.35
2018-04-19T09:40:55.862Z,1020.34
2018-04-19T09:41:55.854Z,1020.3
2018-04-19T09:42:55.852Z,1020.31
2018-04-19T09:43:55.851Z,1020.32
2018-04-19T09:44:55.849Z,1020.27
2018-04-19T09:45:55.848Z,1020.25
2018-04-19T09:46:55.848Z,1020.26
2018-04-19T09:47:55.845Z,1020.23
2018-04-19T09:48:55.845Z,1020.24
2018-04-19T09:49:55.840Z,1020.28
2018-04-19T09:50:55.837Z,1020.26
2018-04-19T09:51:55.872Z,1020.26
2018-04-19T09:52:55.834Z,1020.24
2018-04-19T09:53:56.023Z,1020.25
2018-04-19T09:54:55.828Z,1020.26
2018-04-19T09:55:55.826Z,1020.23
2018-04-19T09:56:55.825Z,1020.16
2018-04-19T09:57:55.823Z,1020.19
2018-04-19T09:58:55.820Z,1020.22
2018-04-19T09:59:55.821Z,1020.2
2018-04-19T10:00:55.817Z,1020.16
2018-04-19T10:01:55.820Z,1020.18
2018-04-19T10:02:55.811Z,1020.2
2018-04-19T10:03:55.810Z,1020.18
2018-04-19T10:04:55.809Z,1020.19
2018-04-19T10:05:56.006Z,1020.12
2018-04-19T10:06:55.832Z,1020.09
2018-04-19T10:07:55.806Z,1020.05
2018-04-19T10:08:55.801Z,1020.06
2018-04-19T10:09:55.799Z,1020.12
2018-04-19T10:10:55.793Z,1020.08
2018-04-19T10:11:55.792Z,1020.04
2018-04-19T10:12:55.789Z,1020.05
2018-04-19T10:13:55.792Z,1020.04
2018-04-19T10:14:55.790Z,1020.05
2018-04-19T10:15:55.931Z,1020.02
2018-04-19T10:16:55.784Z,1020.04
2018-04-19T10:17:55.780Z,1020.04
2018-04-19T10:18:55.776Z,1020.04
2018-04-19T10:19:55.775Z,1020
2018-04-19T10:20:55.773Z,1020.02
2018-04-19T10:21:55.772Z,1020.02
2018-04-19T10:22:55.769Z,1019.98
2018-04-19T10:23:55.766Z,1019.98
2018-04-19T10:24:55.774Z,1019.98
2018-04-19T10:25:55.764Z,1020
2018-04-19T10:26:55.763Z,1020.01
2018-04-19T10:27:55.764Z,1019.96
2018-04-19T10:28:55.755Z,1019.97
2018-04-19T10:29:55.757Z,1019.97
2018-04-19T10:30:55.750Z,1020
2018-04-19T10:31:55.748Z,1020.02
2018-04-19T10:32:55.750Z,1019.96
2018-04-19T10:33:55.744Z,1020.01
2018-04-19T10:34:55.742Z,1019.96
2018-04-19T10:35:55.742Z,1019.9
2018-04-19T10:36:55.946Z,1019.93
2018-04-19T10:37:55.739Z,1019.88
2018-04-19T10:38:55.737Z,1019.87
2018-04-19T10:39:55.734Z,1019.86
2018-04-19T10:40:55.734Z,1019.91
2018-04-19T10:41:55.738Z,1019.85
2018-04-19T10:42:55.729Z,1019.82
2018-04-19T10:43:55.728Z,1019.81
2018-04-19T10:44:55.730Z,1019.75
2018-04-19T10:45:55.726Z,1019.69
2018-04-19T10:46:55.725Z,1019.66
2018-04-19T10:47:55.726Z,1019.71
2018-04-19T10:48:55.725Z,1019.74
2018-04-19T10:49:55.724Z,1019.77
2018-04-19T10:50:55.723Z,1019.79
2018-04-19T10:51:55.725Z,1019.74
2018-04-19T10:52:55.722Z,1019.71
2018-04-19T10:53:55.724Z,1019.71
2018-04-19T10:54:55.723Z,1019.68
2018-04-19T10:55:55.722Z,1019.68
2018-04-19T10:56:55.725Z,1019.78
2018-04-19T10:57:55.724Z,1019.78
2018-04-19T10:58:55.725Z,1019.79
2018-04-19T10:59:55.728Z,1019.66
2018-04-19T11:00:55.776Z,1019.67
2018-04-19T11:01:55.729Z,1019.7
2018-04-19T11:02:55.730Z,1019.78
2018-04-19T11:03:55.730Z,1019.73
2018-04-19T11:04:55.735Z,1019.67
2018-04-19T11:05:55.739Z,1019.61
2018-04-19T11:06:55.740Z,1019.77
2018-04-19T11:07:55.743Z,1019.72
2018-04-19T11:08:55.748Z,1019.74
2018-04-19T11:09:55.752Z,1019.71
2018-04-19T11:10:55.762Z,1019.7
2018-04-19T11:11:55.760Z,1019.75
2018-04-19T11:12:55.810Z,1019.73
2018-04-19T11:13:55.771Z,1019.78
2018-04-19T11:14:55.776Z,1019.79
2018-04-19T11:15:55.788Z,1019.77
2018-04-19T11:16:55.786Z,1019.78
2018-04-19T11:17:55.802Z,1019.73
2018-04-19T11:18:55.834Z,1019.73
2018-04-19T11:19:55.806Z,1019.73
2018-04-19T11:20:55.811Z,1019.74
2018-04-19T11:21:55.819Z,1019.73
2018-04-19T11:22:55.826Z,1019.71
2018-04-19T11:23:55.834Z,1019.72
2018-04-19T11:24:55.838Z,1019.73
2018-04-19T11:25:55.845Z,1019.7
2018-04-19T11:26:55.854Z,1019.63
2018-04-19T11:27:55.865Z,1019.61
2018-04-19T11:28:55.870Z,1019.63
2018-04-19T11:29:55.877Z,1019.62
2018-04-19T11:30:55.937Z,1019.65
2018-04-19T11:31:55.893Z,1019.63
2018-04-19T11:32:55.904Z,1019.64
2018-04-19T11:33:55.909Z,1019.66
2018-04-19T11:34:55.917Z,1019.66
2018-04-19T11:35:55.926Z,1019.66
2018-04-19T11:36:55.934Z,1019.61
2018-04-19T11:37:55.946Z,1019.62
2018-04-19T11:38:55.953Z,1019.56
2018-04-19T11:39:55.964Z,1019.55
2018-04-19T11:40:55.978Z,1019.58
2018-04-19T11:41:55.979Z,1019.59
2018-04-19T11:42:55.991Z,1019.51
2018-04-19T11:43:55.998Z,1019.5
2018-04-19T11:44:56.011Z,1019.54
2018-04-19T11:45:56.020Z,1019.62
2018-04-19T11:46:56.030Z,1019.57
2018-04-19T11:47:56.043Z,1019.55
2018-04-19T11:48:56.048Z,1019.56
2018-04-19T11:49:56.059Z,1019.49
2018-04-19T11:50:56.074Z,1019.49
2018-04-19T11:51:56.083Z,1019.48
2018-04-19T11:52:56.091Z,1019.48
2018-04-19T11:53:56.101Z,1019.44
2018-04-19T11:54:56.111Z,1019.44
2018-04-19T11:55:56.122Z,1019.41
2018-04-19T11:56:56.137Z,1019.41
2018-04-19T11:57:56.143Z,1019.42
2018-04-19T11:58:56.153Z,1019.4
2018-04-19T11:59:56.166Z,1019.42
2018-04-19T12:00:56.210Z,1019.38
2018-04-19T12:01:56.196Z,1019.38
2018-04-19T12:02:56.200Z,1019.38
2018-04-19T12:03:56.208Z,1019.38
2018-04-19T12:04:56.220Z,1019.38
2018-04-19T12:05:56.228Z,1019.37
2018-04-19T12:06:56.241Z,1019.36
2018-04-19T12:07:56.257Z,1019.38